createdAt,value
2018-02-13T00:00:48.751Z,77.40
2018-02-13T00:03:18.535Z,77.62
2018-02-13T00:05:48.297Z,77.19
2018-02-13T00:08:18.501Z,77.51
2018-02-13T00:19:11.371Z,77.62
2018-02-13T00:21:41.553Z,77.74
2018-02-13T00:24:11.551Z,77.89
2018-02-13T00:26:40.781Z,77.95
2018-02-13T00:29:09.742Z,77.85
2018-02-13T00:31:38.757Z,77.96
2018-02-13T00:34:07.777Z,77.91
2018-02-13T00:36:36.855Z,78.01
2018-02-13T00:39:05.819Z,78.02
2018-02-13T00:41:34.885Z,78.01
2018-02-13T00:44:03.820Z,78.05
2018-02-13T00:46:32.891Z,78.20
2018-02-13T00:49:01.849Z,78.25
2018-02-13T00:51:32.415Z,78.26
2018-02-13T00:54:01.779Z,78.11
2018-02-13T00:56:30.752Z,78.16
2018-02-13T00:58:59.794Z,78.19
2018-02-13T01:01:28.766Z,78.28
2018-02-13T01:03:57.775Z,78.18
2018-02-13T01:06:26.736Z,78.10
2018-02-13T01:08:55.757Z,78.13
2018-02-13T01:11:24.789Z,78.09
2018-02-13T01:13:53.763Z,78.03
2018-02-13T01:19:14.673Z,78.27
2018-02-13T01:30:07.085Z,78.40
2018-02-13T01:32:36.710Z,78.32
2018-02-13T01:35:06.398Z,78.32
2018-02-13T01:37:36.562Z,78.43
2018-02-13T01:40:05.732Z,78.43
2018-02-13T01:42:34.733Z,78.55
2018-02-13T01:45:03.770Z,78.31
2018-02-13T01:47:35.761Z,78.39
2018-02-13T01:50:10.763Z,77.95
2018-02-13T01:52:39.754Z,78.57
2018-02-13T01:55:08.738Z,78.47
2018-02-13T01:57:37.735Z,78.30
2018-02-13T02:00:06.774Z,78.48
2018-02-13T02:02:35.762Z,78.59
2018-02-13T02:05:04.767Z,78.54
2018-02-13T02:07:36.724Z,78.52
2018-02-13T02:10:05.774Z,78.41
2018-02-13T02:12:34.866Z,78.74
2018-02-13T02:15:03.825Z,78.37
2018-02-13T02:17:32.786Z,78.74
2018-02-13T02:20:01.754Z,78.58
2018-02-13T02:22:30.789Z,78.54
2018-02-13T02:24:59.774Z,78.63
2018-02-13T02:27:28.778Z,78.97
2018-02-13T02:29:57.803Z,78.55
2018-02-13T02:32:28.310Z,78.73
2018-02-13T02:34:57.721Z,78.70
2018-02-13T02:37:26.763Z,78.61
2018-02-13T02:39:55.807Z,78.59
2018-02-13T02:42:24.793Z,78.55
2018-02-13T02:44:53.764Z,78.69
2018-02-13T02:47:22.760Z,78.54
2018-02-13T02:49:51.776Z,78.65
2018-02-13T02:52:20.757Z,78.65
2018-02-13T02:54:49.771Z,78.72
2018-02-13T02:57:18.760Z,78.81
2018-02-13T02:59:47.906Z,78.72
2018-02-13T03:02:16.868Z,78.70
2018-02-13T03:04:45.868Z,78.67
2018-02-13T03:07:14.865Z,78.58
2018-02-13T03:09:43.848Z,78.56
2018-02-13T03:12:12.762Z,78.71
2018-02-13T03:14:41.788Z,78.70
2018-02-13T03:17:10.849Z,78.75
2018-02-13T03:19:39.781Z,78.68
2018-02-13T03:22:08.771Z,78.65
2018-02-13T03:24:37.756Z,78.49
2018-02-13T03:27:06.783Z,78.59
2018-02-13T03:29:35.844Z,78.58
2018-02-13T03:32:04.779Z,78.61
2018-02-13T03:34:33.769Z,78.65
2018-02-13T03:37:04.239Z,78.74
2018-02-13T03:39:33.737Z,78.75
2018-02-13T03:42:02.778Z,78.62
2018-02-13T03:44:31.782Z,78.57
2018-02-13T03:47:00.843Z,78.81
2018-02-13T03:49:29.780Z,78.73
2018-02-13T03:51:58.847Z,78.86
2018-02-13T03:54:28.237Z,78.86
2018-02-13T03:56:57.688Z,78.81
2018-02-13T03:59:26.792Z,78.91
2018-02-13T04:01:55.777Z,79.00
2018-02-13T04:04:24.793Z,78.91
2018-02-13T04:06:53.779Z,78.88
2018-02-13T04:09:22.790Z,78.91
2018-02-13T04:11:51.999Z,78.83
2018-02-13T04:14:21.047Z,78.76
2018-02-13T04:16:50.183Z,78.75
2018-02-13T04:19:19.706Z,78.70
2018-02-13T04:21:48.810Z,78.88
2018-02-13T04:24:17.833Z,78.79
2018-02-13T04:26:46.810Z,78.70
2018-02-13T04:29:15.841Z,78.85
2018-02-13T04:31:44.859Z,78.79
2018-02-13T04:34:13.871Z,78.75
2018-02-13T04:36:43.035Z,78.81
2018-02-13T04:39:12.245Z,78.92
2018-02-13T04:41:41.709Z,78.79
2018-02-13T04:44:10.754Z,78.94
2018-02-13T04:46:39.814Z,78.82
2018-02-13T04:49:08.787Z,78.85
2018-02-13T04:51:39.759Z,78.73
2018-02-13T04:54:08.766Z,78.74
2018-02-13T04:56:37.761Z,78.76
2018-02-13T04:59:06.861Z,78.78
2018-02-13T05:01:35.816Z,78.77
2018-02-13T05:04:06.428Z,78.88
2018-02-13T05:06:35.823Z,78.85
2018-02-13T05:09:04.930Z,78.87
2018-02-13T05:11:34.048Z,78.80
2018-02-13T05:14:03.223Z,78.78
2018-02-13T05:16:32.785Z,78.83
2018-02-13T05:19:01.790Z,78.84
2018-02-13T05:21:30.854Z,78.90
2018-02-13T05:23:59.850Z,78.88
2018-02-13T05:26:28.857Z,78.99
2018-02-13T05:28:57.803Z,78.92
2018-02-13T05:31:26.868Z,78.90
2018-02-13T05:33:56.057Z,78.90
2018-02-13T05:36:25.209Z,78.89
2018-02-13T05:38:54.749Z,78.89
2018-02-13T05:41:23.813Z,79.01
2018-02-13T05:43:52.848Z,79.05
2018-02-13T05:46:21.960Z,79.02
2018-02-13T05:48:51.103Z,79.01
2018-02-13T05:51:20.704Z,78.98
2018-02-13T05:53:49.888Z,78.87
2018-02-13T05:56:19.081Z,78.91
2018-02-13T05:58:48.291Z,78.92
2018-02-13T06:01:17.896Z,79.09
2018-02-13T06:03:47.305Z,79.19
2018-02-13T06:06:16.779Z,79.28
2018-02-13T06:10:26.537Z,79.13
2018-02-13T06:12:56.359Z,78.95
2018-02-13T06:15:25.759Z,79.09
2018-02-13T06:17:55.103Z,79.14
2018-02-13T06:20:24.388Z,79.17
2018-02-13T06:22:53.770Z,79.10
2018-02-13T06:25:22.841Z,79.03
2018-02-13T06:27:52.693Z,78.98
2018-02-13T06:30:21.742Z,79.08
2018-02-13T06:32:50.796Z,78.98
2018-02-13T06:35:19.877Z,78.99
2018-02-13T06:37:49.048Z,78.93
2018-02-13T06:40:18.289Z,79.01
2018-02-13T06:42:47.774Z,79.06
2018-02-13T06:45:16.869Z,79.11
2018-02-13T06:47:46.073Z,79.08
2018-02-13T06:50:15.854Z,79.17
2018-02-13T06:52:44.781Z,79.16
2018-02-13T06:55:14.104Z,79.17
2018-02-13T06:57:43.706Z,79.20
2018-02-13T07:00:12.893Z,79.23
2018-02-13T07:02:42.412Z,79.20
2018-02-13T07:05:12.128Z,79.15
2018-02-13T07:07:45.401Z,79.16
2018-02-13T07:10:14.863Z,79.14
2018-02-13T07:12:44.099Z,79.27
2018-02-13T07:15:13.817Z,79.24
2018-02-13T07:17:43.710Z,79.19
2018-02-13T07:20:13.214Z,79.27
2018-02-13T07:22:43.375Z,79.24
2018-02-13T07:25:12.777Z,79.21
2018-02-13T07:27:44.242Z,79.27
2018-02-13T07:30:13.774Z,79.37
2018-02-13T07:32:43.512Z,79.40
2018-02-13T07:35:12.748Z,79.45
2018-02-13T07:37:41.759Z,79.29
2018-02-13T07:40:10.829Z,79.34
2018-02-13T07:42:40.254Z,79.38
2018-02-13T07:45:09.784Z,79.47
2018-02-13T07:47:39.995Z,79.52
2018-02-13T07:50:09.256Z,79.56
2018-02-13T07:52:38.761Z,79.65
2018-02-13T07:55:07.936Z,79.61
2018-02-13T07:57:37.207Z,79.63
2018-02-13T08:00:06.765Z,79.65
2018-02-13T08:02:36.270Z,79.49
2018-02-13T08:05:05.848Z,79.65
2018-02-13T08:07:35.203Z,79.62
2018-02-13T08:10:04.885Z,79.61
2018-02-13T08:22:50.280Z,79.69
2018-02-13T08:25:20.711Z,79.70
2018-02-13T08:27:50.592Z,79.71
2018-02-13T08:30:20.834Z,79.59
2018-02-13T08:32:51.566Z,79.72
2018-02-13T08:35:21.525Z,79.71
2018-02-13T08:37:51.805Z,79.73
2018-02-13T08:40:21.649Z,79.70
2018-02-13T08:42:51.795Z,79.57
2018-02-13T08:45:21.918Z,79.50
2018-02-13T08:47:51.444Z,79.67
2018-02-13T08:58:44.536Z,79.71
2018-02-13T09:01:14.846Z,79.80
2018-02-13T09:06:31.406Z,79.82
2018-02-13T09:09:01.428Z,80.01
2018-02-13T09:29:44.488Z,80.09
2018-02-13T09:32:14.563Z,79.99
2018-02-13T09:34:44.589Z,79.99
2018-02-13T09:45:36.772Z,80.04
2018-02-13T09:48:06.835Z,80.11
2018-02-13T09:50:36.839Z,80.13
2018-02-13T10:10:25.789Z,80.26
2018-02-13T10:12:55.930Z,80.25
2018-02-13T10:15:25.787Z,80.21
2018-02-13T10:17:55.585Z,80.16
2018-02-13T10:20:25.723Z,80.18
2018-02-13T10:22:54.882Z,80.20
2018-02-13T10:25:24.278Z,80.21
2018-02-13T10:27:53.764Z,80.19
2018-02-13T10:30:23.709Z,80.21
2018-02-13T10:32:52.803Z,80.17
2018-02-13T10:35:22.442Z,79.99
2018-02-13T10:37:52.268Z,80.12
2018-02-13T10:40:22.837Z,80.15
2018-02-13T10:42:52.722Z,80.25
2018-02-13T10:45:22.347Z,80.23
2018-02-13T10:47:51.960Z,80.31
2018-02-13T10:50:21.267Z,80.13
2018-02-13T10:52:50.945Z,80.10
2018-02-13T10:55:20.478Z,80.21
2018-02-13T10:57:49.929Z,80.17
2018-02-13T11:00:19.481Z,80.31
2018-02-13T11:02:48.857Z,80.26
2018-02-13T11:05:18.282Z,80.25
2018-02-13T11:07:49.922Z,80.22
2018-02-13T11:10:19.317Z,80.42
2018-02-13T11:12:48.998Z,80.23
2018-02-13T11:15:18.685Z,80.09
2018-02-13T11:17:47.883Z,80.21
2018-02-13T11:20:17.438Z,80.20
2018-02-13T11:22:46.912Z,80.23
2018-02-13T11:25:16.510Z,80.17
2018-02-13T11:27:45.886Z,80.20
2018-02-13T11:30:16.126Z,80.28
2018-02-13T11:32:45.796Z,80.22
2018-02-13T11:35:15.471Z,80.18
2018-02-13T11:37:44.829Z,80.31
2018-02-13T11:40:14.307Z,79.90
2018-02-13T11:42:43.893Z,80.01
2018-02-13T11:45:13.260Z,79.84
2018-02-13T11:47:42.788Z,79.82
2018-02-13T11:50:12.438Z,79.48
2018-02-13T11:52:41.947Z,79.48
2018-02-13T11:55:11.095Z,79.38
2018-02-13T11:57:40.797Z,79.33
2018-02-13T12:00:10.278Z,79.53
2018-02-13T12:02:39.814Z,79.45
2018-02-13T12:05:09.291Z,79.20
2018-02-13T12:07:38.765Z,79.17
2018-02-13T12:10:08.261Z,79.17
2018-02-13T12:12:37.907Z,79.00
2018-02-13T12:15:07.405Z,79.07
2018-02-13T12:17:36.937Z,78.72
2018-02-13T12:20:06.810Z,78.79
2018-02-13T12:22:36.313Z,78.78
2018-02-13T12:25:05.884Z,78.73
2018-02-13T12:27:35.587Z,78.76
2018-02-13T12:30:05.538Z,78.62
2018-02-13T12:32:35.777Z,78.61
2018-02-13T12:35:05.695Z,78.50
2018-02-13T12:37:35.814Z,78.34
2018-02-13T12:40:05.498Z,78.24
2018-02-13T12:42:35.735Z,78.03
2018-02-13T12:45:05.467Z,78.04
2018-02-13T12:47:35.727Z,77.98
2018-02-13T12:50:05.697Z,78.20
2018-02-13T12:52:36.048Z,78.08
2018-02-13T12:55:05.972Z,77.89
2018-02-13T12:57:35.817Z,77.93
2018-02-13T13:00:05.900Z,77.88
2018-02-13T13:02:35.862Z,77.66
2018-02-13T13:05:05.926Z,77.76
2018-02-13T13:07:35.813Z,77.76
2018-02-13T13:10:05.482Z,77.64
2018-02-13T13:12:35.345Z,77.65
2018-02-13T13:15:05.101Z,77.58
2018-02-13T13:17:34.901Z,77.61
2018-02-13T13:20:04.850Z,77.49
2018-02-13T13:22:34.616Z,77.63
2018-02-13T13:25:04.886Z,77.58
2018-02-13T13:27:34.857Z,77.59
2018-02-13T13:30:05.045Z,77.61
2018-02-13T13:32:35.379Z,77.54
2018-02-13T13:35:05.412Z,77.66
2018-02-13T13:37:35.305Z,77.69
2018-02-13T13:40:05.396Z,77.76
2018-02-13T13:42:35.385Z,77.64
2018-02-13T13:45:05.394Z,77.45
2018-02-13T13:47:35.247Z,77.46
2018-02-13T13:50:05.468Z,77.59
2018-02-13T13:52:35.444Z,77.42
2018-02-13T13:55:05.796Z,77.52
2018-02-13T13:57:35.745Z,77.70
2018-02-13T14:00:05.914Z,77.54
2018-02-13T14:02:35.841Z,77.41
2018-02-13T14:05:05.727Z,77.18
2018-02-13T14:07:35.485Z,77.16
2018-02-13T14:10:05.489Z,77.19
2018-02-13T14:12:35.454Z,77.32
2018-02-13T14:15:05.458Z,77.44
2018-02-13T14:17:35.899Z,77.45
2018-02-13T14:20:05.998Z,77.42
2018-02-13T14:22:35.820Z,77.31
2018-02-13T14:25:05.618Z,77.32
2018-02-13T14:27:35.463Z,77.23
2018-02-13T14:30:05.643Z,77.35
2018-02-13T14:32:35.861Z,77.42
2018-02-13T14:35:05.863Z,77.25
2018-02-13T14:37:35.823Z,77.28
2018-02-13T14:40:05.854Z,77.28
2018-02-13T14:42:35.672Z,77.23
2018-02-13T14:45:05.786Z,77.18
2018-02-13T14:47:35.975Z,77.23
2018-02-13T14:50:05.957Z,77.36
2018-02-13T14:52:35.853Z,77.38
2018-02-13T14:55:05.911Z,77.39
2018-02-13T14:57:35.693Z,77.39
2018-02-13T15:12:37.937Z,77.23
2018-02-13T15:18:23.796Z,77.41
2018-02-13T15:20:57.225Z,77.31
2018-02-13T15:23:29.896Z,77.23
2018-02-13T15:26:00.798Z,76.84
2018-02-13T15:28:30.485Z,76.80
2018-02-13T15:31:00.634Z,76.95
2018-02-13T15:33:29.971Z,77.06
2018-02-13T15:44:24.494Z,76.74
2018-02-13T15:47:04.762Z,76.60
2018-02-13T15:49:34.708Z,76.70
2018-02-13T15:52:03.843Z,76.62
2018-02-13T15:54:32.845Z,76.58
2018-02-13T15:57:01.832Z,76.13
2018-02-13T15:59:30.876Z,76.01
2018-02-13T16:02:00.227Z,76.45
2018-02-13T16:04:29.788Z,76.08
2018-02-13T16:06:59.265Z,76.26
2018-02-13T16:09:28.757Z,76.24
2018-02-13T16:11:59.414Z,76.67
2018-02-13T16:14:28.879Z,76.74
2018-02-13T16:16:58.095Z,76.79
2018-02-13T16:19:27.785Z,76.63
2018-02-13T16:21:57.259Z,76.72
2018-02-13T16:24:26.912Z,76.84
2018-02-13T16:26:56.438Z,76.95
2018-02-13T16:29:25.809Z,76.85
2018-02-13T16:31:56.951Z,76.80
2018-02-13T16:34:26.500Z,76.72
2018-02-13T16:36:55.755Z,76.70
2018-02-13T16:39:25.220Z,76.48
2018-02-13T16:41:54.789Z,76.78
2018-02-13T16:44:24.278Z,76.71
2018-02-13T16:46:53.776Z,76.81
2018-02-13T16:49:23.354Z,76.34
2018-02-13T16:51:52.815Z,76.71
2018-02-13T16:54:22.195Z,76.53
2018-02-13T16:56:51.807Z,76.45
2018-02-13T16:59:21.112Z,76.35
2018-02-13T17:01:50.804Z,76.24
2018-02-13T17:04:20.444Z,75.91
2018-02-13T17:06:49.754Z,75.87
2018-02-13T17:09:18.912Z,75.95
2018-02-13T17:11:48.297Z,76.13
2018-02-13T17:14:17.868Z,75.74
2018-02-13T17:16:47.402Z,76.13
2018-02-13T17:19:16.841Z,76.02
2018-02-13T17:21:46.092Z,76.04
2018-02-13T17:24:22.795Z,75.83
2018-02-13T17:26:51.910Z,76.09
2018-02-13T17:29:21.320Z,75.72
2018-02-13T17:31:50.884Z,75.53
2018-02-13T17:34:19.879Z,75.73
2018-02-13T17:36:49.141Z,75.81
2018-02-13T17:39:18.707Z,75.61
2018-02-13T17:41:47.747Z,75.31
2018-02-13T17:44:16.789Z,75.21
2018-02-13T17:46:46.423Z,75.26
2018-02-13T17:49:15.745Z,75.00
2018-02-13T17:51:44.757Z,75.24
2018-02-13T17:54:13.861Z,74.80
2018-02-13T17:56:43.271Z,74.85
2018-02-13T17:59:12.762Z,74.68
2018-02-13T18:01:42.239Z,74.06
2018-02-13T18:04:11.749Z,74.29
2018-02-13T18:06:41.229Z,73.92
2018-02-13T18:09:10.800Z,74.18
2018-02-13T18:11:40.109Z,73.67
2018-02-13T18:14:09.682Z,74.13
2018-02-13T18:16:38.857Z,73.77
2018-02-13T18:19:08.218Z,74.02
2018-02-13T18:21:37.731Z,73.34
2018-02-13T18:24:06.794Z,73.49
2018-02-13T18:26:35.815Z,73.82
2018-02-13T18:29:05.115Z,73.63
2018-02-13T18:31:34.864Z,74.02
2018-02-13T18:34:04.281Z,73.53
2018-02-13T18:36:33.730Z,73.70
2018-02-13T18:39:02.870Z,73.89
2018-02-13T18:41:31.862Z,73.76
2018-02-13T18:44:03.317Z,73.79
2018-02-13T18:46:32.808Z,73.47
2018-02-13T18:49:01.864Z,74.24
2018-02-13T18:51:31.060Z,73.39
2018-02-13T18:54:00.241Z,74.14
2018-02-13T18:56:29.792Z,73.49
2018-02-13T18:58:58.824Z,73.68
2018-02-13T19:01:27.875Z,73.49
2018-02-13T19:03:57.031Z,73.46
2018-02-13T19:06:26.234Z,73.84
2018-02-13T19:08:55.797Z,73.51
2018-02-13T19:11:25.076Z,73.41
2018-02-13T19:13:54.721Z,73.64
2018-02-13T19:16:23.874Z,73.59
2018-02-13T19:18:52.958Z,73.77
2018-02-13T19:21:22.209Z,73.82
2018-02-13T19:23:51.763Z,74.21
2018-02-13T19:26:20.796Z,73.73
2018-02-13T19:28:49.873Z,73.63
2018-02-13T19:31:18.875Z,73.16
2018-02-13T19:33:47.924Z,73.84
2018-02-13T19:36:17.221Z,73.55
2018-02-13T19:38:46.762Z,74.18
2018-02-13T19:41:15.846Z,73.80
2018-02-13T19:43:45.171Z,73.66
2018-02-13T19:46:14.788Z,73.20
2018-02-13T19:48:43.887Z,73.92
2018-02-13T19:51:13.079Z,74.00
2018-02-13T19:53:42.687Z,74.11
2018-02-13T19:56:11.902Z,74.30
2018-02-13T19:58:40.893Z,74.21
2018-02-13T20:01:10.195Z,74.49
2018-02-13T20:03:39.713Z,75.08
2018-02-13T20:06:08.903Z,74.83
2018-02-13T20:08:37.907Z,74.73
2018-02-13T20:11:06.854Z,74.63
2018-02-13T20:13:35.834Z,74.83
2018-02-13T20:16:04.870Z,74.98
2018-02-13T20:18:33.884Z,75.09
2018-02-13T20:21:03.052Z,74.87
2018-02-13T20:23:32.090Z,74.89
2018-02-13T20:26:01.514Z,75.39
2018-02-13T20:28:30.850Z,74.78
2018-02-13T20:30:59.868Z,75.54
2018-02-13T20:33:28.973Z,75.17
2018-02-13T20:35:58.038Z,75.59
2018-02-13T20:38:27.270Z,75.70
2018-02-13T20:40:56.718Z,76.19
2018-02-13T20:43:25.775Z,75.84
2018-02-13T20:45:54.782Z,75.93
2018-02-13T20:48:23.847Z,75.83
2018-02-13T20:50:54.278Z,76.03
2018-02-13T20:53:23.756Z,76.29
2018-02-13T20:55:52.746Z,76.06
2018-02-13T20:58:21.751Z,76.43
2018-02-13T21:00:50.737Z,76.24
2018-02-13T21:03:19.760Z,75.99
2018-02-13T21:05:48.795Z,75.81
2018-02-13T21:08:17.754Z,76.17
2018-02-13T21:10:46.757Z,76.56
2018-02-13T21:13:16.094Z,76.33
2018-02-13T21:15:45.729Z,76.38
2018-02-13T21:18:14.798Z,76.37
2018-02-13T21:20:43.870Z,76.62
2018-02-13T21:23:13.771Z,76.51
2018-02-13T21:25:42.777Z,76.64
2018-02-13T21:28:12.000Z,76.31
2018-02-13T21:30:41.217Z,76.80
2018-02-13T21:33:10.674Z,76.70
2018-02-13T21:35:39.756Z,75.97
2018-02-13T21:38:08.773Z,76.20
2018-02-13T21:40:37.852Z,76.68
2018-02-13T21:43:07.206Z,76.29
2018-02-13T21:45:36.699Z,76.23
2018-02-13T21:48:07.650Z,76.39
2018-02-13T21:50:36.777Z,76.39
2018-02-13T21:53:05.754Z,76.62
2018-02-13T21:55:34.764Z,75.50
2018-02-13T21:58:03.735Z,75.83
2018-02-13T22:00:32.799Z,75.85
2018-02-13T22:03:01.781Z,76.06
2018-02-13T22:05:30.868Z,76.26
2018-02-13T22:07:59.860Z,76.22
2018-02-13T22:10:29.041Z,76.04
2018-02-13T22:12:58.048Z,76.12
2018-02-13T22:15:27.196Z,76.25
2018-02-13T22:17:56.744Z,76.26
2018-02-13T22:20:25.739Z,76.31
2018-02-13T22:22:54.773Z,76.26
2018-02-13T22:25:24.054Z,76.13
2018-02-13T22:27:53.047Z,76.39
2018-02-13T22:30:22.237Z,76.30
2018-02-13T22:32:51.748Z,76.21
2018-02-13T22:35:20.747Z,76.10
2018-02-13T22:37:49.746Z,75.94
2018-02-13T22:40:18.820Z,76.28
2018-02-13T22:42:47.844Z,76.40
2018-02-13T22:45:16.790Z,76.52
2018-02-13T22:47:45.869Z,76.14
2018-02-13T22:50:14.878Z,76.18
2018-02-13T22:52:43.762Z,76.26
2018-02-13T22:55:12.732Z,76.22
2018-02-13T22:57:41.739Z,75.92
2018-02-13T23:00:10.738Z,76.36
2018-02-13T23:02:39.801Z,76.51
2018-02-13T23:05:08.876Z,76.02
2018-02-13T23:07:37.826Z,76.25
2018-02-13T23:10:07.109Z,76.35
2018-02-13T23:12:36.775Z,75.83
2018-02-13T23:15:05.753Z,76.39
2018-02-13T23:17:34.773Z,76.28
2018-02-13T23:20:03.806Z,75.87
2018-02-13T23:22:33.193Z,76.40
2018-02-13T23:25:02.776Z,76.06
2018-02-13T23:27:31.844Z,76.13
2018-02-13T23:30:00.856Z,76.27
2018-02-13T23:32:29.855Z,76.18
2018-02-13T23:34:58.841Z,75.86
2018-02-13T23:37:27.857Z,76.16
2018-02-13T23:39:57.035Z,76.40
2018-02-13T23:42:25.840Z,76.17
2018-02-13T23:44:54.804Z,75.99
2018-02-13T23:47:23.842Z,76.20
2018-02-13T23:49:53.033Z,76.13
2018-02-13T23:52:22.089Z,76.10
2018-02-13T23:54:51.666Z,76.36
2018-02-13T23:57:20.793Z,75.91
2018-02-13T23:59:49.795Z,76.19
